createdAt,value
2018-12-27T00:01:02.698Z,-1.80
2018-12-27T00:03:33.639Z,-1.80
2018-12-27T00:06:04.378Z,-1.90
2018-12-27T00:08:35.658Z,-1.80
2018-12-27T00:11:06.305Z,-1.70
2018-12-27T00:13:37.907Z,-1.70
2018-12-27T00:16:08.778Z,-1.70
2018-12-27T00:18:39.605Z,-1.70
2018-12-27T00:21:10.480Z,-1.70
2018-12-27T00:23:41.302Z,-1.70
2018-12-27T00:26:12.114Z,-1.80
2018-12-27T00:28:43.012Z,-1.70
2018-12-27T00:31:13.910Z,-1.70
2018-12-27T00:33:44.746Z,-1.70
2018-12-27T00:36:15.666Z,-1.70
2018-12-27T00:38:46.594Z,-1.70
2018-12-27T00:41:17.562Z,-1.60
2018-12-27T00:43:48.422Z,-1.70
2018-12-27T00:46:19.392Z,-1.70
2018-12-27T00:48:50.327Z,-1.70
2018-12-27T00:51:21.212Z,-1.80
2018-12-27T00:53:52.146Z,-1.90
2018-12-27T00:56:23.042Z,-2.00
2018-12-27T00:58:53.854Z,-1.90
2018-12-27T01:01:24.789Z,-2.00
2018-12-27T01:03:55.589Z,-2.00
2018-12-27T01:11:27.941Z,-1.90
2018-12-27T01:13:58.740Z,-1.90
2018-12-27T01:16:29.584Z,-1.80
2018-12-27T01:19:00.449Z,-1.70
2018-12-27T01:21:31.351Z,-1.70
2018-12-27T01:24:03.102Z,-1.70
2018-12-27T01:26:33.920Z,-1.70
2018-12-27T01:29:04.794Z,-1.80
2018-12-27T01:31:35.696Z,-1.80
2018-12-27T01:34:06.605Z,-1.90
2018-12-27T01:36:37.457Z,-1.90
2018-12-27T01:39:08.262Z,-1.90
2018-12-27T01:41:39.158Z,-1.90
2018-12-27T01:44:10.034Z,-1.90
2018-12-27T01:46:40.950Z,-2.00
2018-12-27T01:49:11.862Z,-1.90
2018-12-27T01:51:42.780Z,-1.90
2018-12-27T01:54:13.681Z,-1.90
2018-12-27T01:56:44.581Z,-2.00
2018-12-27T01:59:15.313Z,-2.00
2018-12-27T02:01:46.125Z,-2.00
2018-12-27T02:04:17.006Z,-2.00
2018-12-27T02:06:47.898Z,-2.10
2018-12-27T02:09:18.772Z,-2.10
2018-12-27T02:11:49.589Z,-2.20
2018-12-27T02:14:20.470Z,-2.20
2018-12-27T02:16:51.281Z,-2.30
2018-12-27T02:19:22.065Z,-2.30
2018-12-27T02:21:52.906Z,-2.30
2018-12-27T02:24:23.638Z,-2.20
2018-12-27T02:26:54.445Z,-2.20
2018-12-27T02:29:25.234Z,-2.20
2018-12-27T02:31:56.057Z,-2.20
2018-12-27T02:34:26.851Z,-2.20
2018-12-27T02:36:57.606Z,-2.20
2018-12-27T02:39:28.337Z,-2.20
2018-12-27T02:41:59.233Z,-2.20
2018-12-27T02:44:30.036Z,-2.20
2018-12-27T02:47:00.769Z,-2.30
2018-12-27T02:49:31.646Z,-2.40
2018-12-27T02:52:02.467Z,-2.30
2018-12-27T02:54:33.326Z,-2.30
2018-12-27T02:57:04.222Z,-2.30
2018-12-27T02:59:35.104Z,-2.30
2018-12-27T03:02:06.024Z,-2.40
2018-12-27T03:04:36.881Z,-2.40
2018-12-27T03:07:07.785Z,-2.50
2018-12-27T03:09:38.653Z,-2.60
2018-12-27T03:12:09.797Z,-2.60
2018-12-27T03:14:40.675Z,-2.60
2018-12-27T03:17:11.598Z,-2.60
2018-12-27T03:19:42.481Z,-2.70
2018-12-27T03:22:13.322Z,-2.70
2018-12-27T03:24:44.133Z,-2.70
2018-12-27T03:27:15.035Z,-2.70
2018-12-27T03:29:45.908Z,-2.60
2018-12-27T03:32:16.913Z,-2.70
2018-12-27T03:34:47.774Z,-2.70
2018-12-27T03:37:20.003Z,-2.80
2018-12-27T03:39:50.898Z,-2.80
2018-12-27T03:42:21.721Z,-2.80
2018-12-27T03:44:52.598Z,-2.70
2018-12-27T03:47:23.508Z,-2.70
2018-12-27T03:49:54.414Z,-2.80
2018-12-27T03:52:25.165Z,-2.80
2018-12-27T03:54:56.048Z,-2.70
2018-12-27T03:57:26.862Z,-2.80
2018-12-27T03:59:57.741Z,-2.80
2018-12-27T04:02:29.053Z,-2.70
2018-12-27T04:04:59.852Z,-2.80
2018-12-27T04:07:30.662Z,-2.80
2018-12-27T04:10:02.431Z,-2.90
2018-12-27T04:12:33.737Z,-2.90
2018-12-27T04:15:10.419Z,-2.80
2018-12-27T04:17:41.157Z,-2.90
2018-12-27T04:20:11.798Z,-3.00
2018-12-27T04:22:42.459Z,-3.00
2018-12-27T04:25:13.085Z,-3.00
2018-12-27T04:27:43.737Z,-3.00
2018-12-27T04:30:14.373Z,-2.90
2018-12-27T04:32:45.538Z,-3.00
2018-12-27T04:35:16.458Z,-3.00
2018-12-27T04:37:47.238Z,-2.90
2018-12-27T04:40:17.955Z,-3.00
2018-12-27T04:42:48.790Z,-3.00
2018-12-27T04:45:19.375Z,-3.00
2018-12-27T04:47:50.139Z,-3.10
2018-12-27T04:52:51.151Z,-3.10
2018-12-27T04:55:22.019Z,-3.10
2018-12-27T04:57:52.870Z,-3.10
2018-12-27T05:00:23.630Z,-3.10
2018-12-27T05:02:54.329Z,-3.10
2018-12-27T05:05:25.080Z,-3.10
2018-12-27T05:07:55.750Z,-3.10
2018-12-27T05:10:27.218Z,-3.10
2018-12-27T05:12:58.115Z,-3.10
2018-12-27T05:15:28.923Z,-3.10
2018-12-27T05:17:59.772Z,-3.10
2018-12-27T05:20:31.834Z,-3.20
2018-12-27T05:23:02.687Z,-3.20
2018-12-27T05:25:33.585Z,-3.20
2018-12-27T05:28:04.330Z,-3.20
2018-12-27T05:30:35.052Z,-3.20
2018-12-27T05:33:06.586Z,-3.30
2018-12-27T05:35:37.527Z,-3.30
2018-12-27T05:38:08.294Z,-3.40
2018-12-27T05:40:39.041Z,-3.40
2018-12-27T05:43:09.789Z,-3.30
2018-12-27T05:45:40.558Z,-3.50
2018-12-27T05:48:11.209Z,-3.50
2018-12-27T05:50:41.931Z,-3.50
2018-12-27T05:53:12.657Z,-3.40
2018-12-27T05:55:43.349Z,-3.40
2018-12-27T05:58:14.124Z,-3.50
2018-12-27T06:00:45.000Z,-3.40
2018-12-27T06:03:15.882Z,-3.40
2018-12-27T06:05:46.979Z,-3.30
2018-12-27T06:08:17.876Z,-3.30
2018-12-27T06:10:48.764Z,-3.30
2018-12-27T06:13:19.668Z,-3.30
2018-12-27T06:15:50.518Z,-3.30
2018-12-27T06:18:21.317Z,-3.30
2018-12-27T06:20:52.215Z,-3.20
2018-12-27T06:23:23.094Z,-3.20
2018-12-27T06:25:55.478Z,-3.20
2018-12-27T06:28:26.137Z,-3.20
2018-12-27T06:30:57.747Z,-3.20
2018-12-27T06:33:28.558Z,-3.20
2018-12-27T06:35:59.527Z,-3.10
2018-12-27T06:38:30.511Z,-3.10
2018-12-27T06:41:01.450Z,-3.10
2018-12-27T06:43:32.197Z,-3.10
2018-12-27T06:46:03.129Z,-3.00
2018-12-27T06:48:33.982Z,-2.90
2018-12-27T06:51:04.649Z,-2.90
2018-12-27T06:53:35.358Z,-2.90
2018-12-27T06:56:06.035Z,-2.90
2018-12-27T06:58:37.851Z,-2.90
2018-12-27T07:01:08.957Z,-2.90
2018-12-27T07:03:39.589Z,-2.80
2018-12-27T07:06:10.267Z,-2.80
2018-12-27T07:08:40.986Z,-2.80
2018-12-27T07:11:11.717Z,-2.80
2018-12-27T07:13:42.425Z,-2.90
2018-12-27T07:16:13.155Z,-2.80
2018-12-27T07:18:43.877Z,-2.90
2018-12-27T07:21:19.652Z,-2.90
2018-12-27T07:30:53.325Z,-2.90
2018-12-27T07:35:54.402Z,-2.90
2018-12-27T07:38:25.124Z,-2.90
2018-12-27T07:54:28.245Z,-2.90
2018-12-27T08:00:19.602Z,-2.80
2018-12-27T08:02:50.329Z,-2.90
2018-12-27T08:05:20.969Z,-2.70
2018-12-27T08:07:51.705Z,-2.70
2018-12-27T08:41:58.791Z,-1.20
2018-12-27T08:44:29.678Z,-1.10
2018-12-27T08:49:56.207Z,-1.10
2018-12-27T08:52:26.930Z,-1.00
2018-12-27T08:55:12.894Z,-1.00
2018-12-27T08:57:43.629Z,-0.90
2018-12-27T09:00:14.262Z,-0.80
2018-12-27T09:02:53.246Z,-0.80
2018-12-27T09:05:25.053Z,-0.70
2018-12-27T09:07:55.873Z,-0.70
2018-12-27T09:12:56.690Z,-0.70
2018-12-27T09:15:27.409Z,-0.70
2018-12-27T09:17:58.069Z,-0.70
2018-12-27T09:20:28.708Z,-0.60
2018-12-27T09:23:16.817Z,-0.60
2018-12-27T09:25:47.543Z,-0.60
2018-12-27T09:28:18.405Z,-0.40
2018-12-27T09:34:26.438Z,-0.10
2018-12-27T09:37:01.417Z,0.00
2018-12-27T09:39:32.149Z,0.00
2018-12-27T09:42:02.918Z,0.30
2018-12-27T09:44:48.905Z,0.40
2018-12-27T09:47:22.677Z,0.50
2018-12-27T09:50:44.401Z,0.20
2018-12-27T09:53:41.774Z,0.00
2018-12-27T09:57:05.277Z,-0.10
2018-12-27T10:00:23.027Z,0.00
2018-12-27T10:03:21.922Z,0.10
2018-12-27T10:06:01.255Z,0.30
2018-12-27T10:08:35.629Z,0.30
2018-12-27T10:11:06.326Z,0.60
2018-12-27T10:13:37.061Z,0.80
2018-12-27T10:16:07.687Z,1.20
2018-12-27T10:18:38.418Z,1.20
2018-12-27T10:21:09.137Z,0.60
2018-12-27T10:23:39.710Z,0.70
2018-12-27T10:26:10.412Z,0.80
2018-12-27T10:28:41.073Z,0.90
2018-12-27T10:31:11.673Z,0.90
2018-12-27T10:33:42.328Z,0.90
2018-12-27T10:36:13.023Z,0.90
2018-12-27T10:38:43.779Z,1.00
2018-12-27T10:41:14.485Z,1.10
2018-12-27T10:43:45.061Z,1.20
2018-12-27T10:46:21.576Z,1.10
2018-12-27T10:51:22.153Z,1.60
2018-12-27T10:53:52.861Z,1.60
2018-12-27T10:56:23.545Z,1.60
2018-12-27T10:58:58.234Z,1.60
2018-12-27T11:01:30.405Z,1.60
2018-12-27T11:04:01.061Z,1.40
2018-12-27T11:06:31.621Z,1.70
2018-12-27T11:09:02.725Z,1.90
2018-12-27T11:11:33.467Z,1.90
2018-12-27T11:14:04.172Z,2.60
2018-12-27T11:16:34.795Z,3.40
2018-12-27T11:19:06.517Z,4.30
2018-12-27T11:21:37.217Z,4.30
2018-12-27T11:24:07.926Z,4.40
2018-12-27T11:26:38.613Z,4.20
2018-12-27T11:29:09.361Z,4.10
2018-12-27T11:31:40.062Z,4.00
2018-12-27T11:34:10.839Z,3.80
2018-12-27T11:36:42.532Z,3.70
2018-12-27T11:39:13.221Z,3.40
2018-12-27T11:41:43.993Z,3.40
2018-12-27T11:44:14.570Z,4.00
2018-12-27T11:46:45.498Z,4.10
2018-12-27T11:49:16.229Z,4.20
2018-12-27T11:51:46.860Z,4.20
2018-12-27T11:54:17.596Z,4.50
2018-12-27T11:56:48.385Z,4.60
2018-12-27T11:59:19.269Z,4.40
2018-12-27T12:01:51.060Z,4.40
2018-12-27T12:04:21.638Z,4.20
2018-12-27T12:06:52.637Z,4.30
2018-12-27T12:09:23.527Z,4.10
2018-12-27T12:11:54.216Z,3.90
2018-12-27T12:14:24.952Z,3.90
2018-12-27T12:16:55.633Z,3.70
2018-12-27T12:19:26.281Z,3.90
2018-12-27T12:21:56.913Z,3.90
2018-12-27T12:24:27.557Z,4.00
2018-12-27T12:26:58.185Z,4.00
2018-12-27T12:29:28.903Z,4.00
2018-12-27T12:31:59.588Z,4.10
2018-12-27T12:34:30.166Z,4.00
2018-12-27T12:37:01.177Z,4.20
2018-12-27T12:39:31.817Z,4.40
2018-12-27T12:42:02.442Z,4.50
2018-12-27T12:44:33.194Z,4.50
2018-12-27T12:47:03.953Z,4.30
2018-12-27T12:49:34.641Z,4.40
2018-12-27T12:52:05.282Z,4.30
2018-12-27T12:54:35.938Z,4.10
2018-12-27T12:57:06.589Z,4.20
2018-12-27T12:59:37.209Z,4.20
2018-12-27T13:02:07.749Z,4.40
2018-12-27T13:04:38.401Z,5.00
2018-12-27T13:07:09.012Z,5.40
2018-12-27T13:09:39.684Z,5.60
2018-12-27T13:12:10.221Z,5.90
2018-12-27T13:14:40.877Z,6.70
2018-12-27T13:17:11.573Z,6.70
2018-12-27T13:19:42.191Z,6.60
2018-12-27T13:22:12.916Z,6.20
2018-12-27T13:24:43.528Z,6.30
2018-12-27T13:27:14.179Z,6.30
2018-12-27T13:29:44.869Z,7.10
2018-12-27T13:32:15.525Z,8.20
2018-12-27T13:34:48.858Z,7.60
2018-12-27T13:37:19.595Z,7.20
2018-12-27T13:39:50.285Z,6.90
2018-12-27T13:42:22.065Z,6.80
2018-12-27T13:44:53.091Z,6.50
2018-12-27T13:47:23.934Z,6.30
2018-12-27T13:49:54.695Z,5.80
2018-12-27T13:52:25.348Z,5.30
2018-12-27T13:54:56.210Z,5.10
2018-12-27T13:57:27.209Z,4.80
2018-12-27T13:59:58.200Z,4.60
2018-12-27T14:02:29.097Z,4.50
2018-12-27T14:04:59.794Z,4.20
2018-12-27T14:07:30.516Z,4.00
2018-12-27T14:10:01.250Z,4.00
2018-12-27T14:12:32.266Z,3.90
2018-12-27T14:15:02.962Z,3.80
2018-12-27T14:17:34.808Z,3.60
2018-12-27T14:20:07.159Z,3.60
2018-12-27T14:22:37.897Z,3.40
2018-12-27T14:25:08.537Z,3.40
2018-12-27T14:27:39.378Z,3.30
2018-12-27T14:30:10.132Z,3.30
2018-12-27T14:32:40.866Z,3.20
2018-12-27T14:35:11.756Z,3.20
2018-12-27T14:37:42.696Z,3.10
2018-12-27T14:40:13.289Z,3.00
2018-12-27T14:42:44.566Z,2.90
2018-12-27T14:45:15.377Z,2.90
2018-12-27T14:47:46.042Z,2.90
2018-12-27T14:50:16.797Z,2.80
2018-12-27T14:52:47.525Z,2.80
2018-12-27T14:55:18.325Z,2.70
2018-12-27T14:57:49.109Z,2.70
2018-12-27T15:00:19.825Z,2.60
2018-12-27T15:02:50.467Z,2.50
2018-12-27T15:05:21.434Z,2.50
2018-12-27T15:07:52.081Z,2.40
2018-12-27T15:10:22.798Z,2.30
2018-12-27T15:12:53.526Z,2.30
2018-12-27T15:15:24.162Z,2.30
2018-12-27T15:17:54.870Z,2.20
2018-12-27T15:20:26.546Z,2.20
2018-12-27T15:22:57.273Z,2.10
2018-12-27T15:25:27.961Z,2.00
2018-12-27T15:27:58.534Z,2.10
2018-12-27T15:30:29.241Z,2.10
2018-12-27T15:32:59.876Z,2.10
2018-12-27T15:35:30.516Z,2.00
2018-12-27T15:38:01.264Z,1.90
2018-12-27T15:40:31.813Z,1.90
2018-12-27T15:43:02.468Z,1.80
2018-12-27T15:45:33.099Z,1.90
2018-12-27T15:48:03.821Z,1.80
2018-12-27T15:50:34.453Z,1.50
2018-12-27T15:53:05.101Z,1.50
2018-12-27T15:55:35.709Z,1.40
2018-12-27T15:58:06.356Z,1.30
2018-12-27T16:00:37.054Z,1.20
2018-12-27T16:03:07.637Z,1.00
2018-12-27T16:05:38.428Z,1.00
2018-12-27T16:08:09.077Z,1.00
2018-12-27T16:10:40.802Z,1.00
2018-12-27T16:13:11.581Z,0.90
2018-12-27T16:15:42.310Z,0.90
2018-12-27T16:18:13.045Z,0.90
2018-12-27T16:20:43.719Z,0.90
2018-12-27T16:23:14.452Z,0.80
2018-12-27T16:25:45.146Z,0.80
2018-12-27T16:28:16.349Z,0.70
2018-12-27T16:30:47.939Z,0.70
2018-12-27T16:33:18.728Z,0.70
2018-12-27T16:35:50.473Z,0.60
2018-12-27T16:38:21.595Z,0.60
2018-12-27T16:40:52.344Z,-1.40
2018-12-27T16:43:23.017Z,0.50
2018-12-27T16:45:53.721Z,0.40
2018-12-27T16:50:55.029Z,0.30
2018-12-27T16:53:25.726Z,0.30
2018-12-27T16:55:56.389Z,0.20
2018-12-27T16:58:27.099Z,0.20
2018-12-27T17:00:57.806Z,0.10
2018-12-27T17:03:29.075Z,0.10
2018-12-27T17:05:59.783Z,0.30
2018-12-27T17:08:31.610Z,0.20
2018-12-27T17:11:03.182Z,0.30
2018-12-27T17:13:34.018Z,0.30
2018-12-27T17:16:04.661Z,0.20
2018-12-27T17:18:35.429Z,0.20
2018-12-27T17:21:06.054Z,0.20
2018-12-27T17:23:36.785Z,0.10
2018-12-27T17:26:07.484Z,0.10
2018-12-27T17:28:38.142Z,0.10
2018-12-27T17:31:08.869Z,0.00
2018-12-27T17:33:39.637Z,0.00
2018-12-27T17:36:10.258Z,0.00
2018-12-27T17:38:41.045Z,0.00
2018-12-27T17:41:11.746Z,0.00
2018-12-27T17:43:42.419Z,0.00
2018-12-27T17:46:13.067Z,-0.10
2018-12-27T17:48:43.836Z,-0.10
2018-12-27T17:51:14.622Z,-0.20
2018-12-27T17:53:45.393Z,-0.20
2018-12-27T17:56:16.038Z,-0.20
2018-12-27T17:58:47.181Z,-0.30
2018-12-27T18:01:17.817Z,-0.20
2018-12-27T18:03:48.549Z,-0.30
2018-12-27T18:06:19.119Z,-0.30
2018-12-27T18:08:49.882Z,-0.30
2018-12-27T18:11:20.518Z,-0.20
2018-12-27T18:13:51.307Z,-0.40
2018-12-27T18:16:22.022Z,-0.40
2018-12-27T18:18:52.816Z,-0.40
2018-12-27T18:21:23.466Z,-0.50
2018-12-27T18:23:54.354Z,-0.50
2018-12-27T18:28:55.156Z,-0.50
2018-12-27T18:31:25.867Z,-0.60
2018-12-27T18:33:57.904Z,-0.60
2018-12-27T18:36:28.633Z,-0.60
2018-12-27T18:38:59.429Z,-0.60
2018-12-27T18:41:30.099Z,-0.70
2018-12-27T18:44:00.832Z,-0.70
2018-12-27T18:46:31.585Z,-0.60
2018-12-27T18:49:03.988Z,-0.60
2018-12-27T18:51:35.106Z,-0.60
2018-12-27T18:54:06.248Z,-0.60
2018-12-27T18:56:45.321Z,-0.60
2018-12-27T18:59:25.569Z,-0.60
2018-12-27T19:04:32.287Z,-0.60
2018-12-27T19:07:04.991Z,-0.60
2018-12-27T19:09:40.992Z,-0.60
2018-12-27T19:12:47.801Z,-0.60
2018-12-27T19:15:22.254Z,-0.70
2018-12-27T19:18:14.718Z,-0.70
2018-12-27T19:20:49.991Z,-0.80
2018-12-27T19:23:22.347Z,-0.60
2018-12-27T19:25:53.426Z,-0.70
2018-12-27T19:33:58.611Z,-0.80
2018-12-27T19:36:37.686Z,-0.80
2018-12-27T19:39:07.707Z,-0.70
2018-12-27T19:49:16.402Z,-0.80
2018-12-27T19:51:49.381Z,-0.70
2018-12-27T19:54:20.694Z,-0.70
2018-12-27T19:57:02.550Z,-0.70
2018-12-27T19:59:34.171Z,-0.70
2018-12-27T20:04:40.452Z,-0.70
2018-12-27T20:07:13.711Z,-0.70
2018-12-27T20:09:53.245Z,-0.70
2018-12-27T20:12:27.276Z,-0.70
2018-12-27T20:14:58.607Z,-0.70
2018-12-27T20:17:33.071Z,-0.70
2018-12-27T20:25:13.334Z,-0.60
2018-12-27T20:27:45.632Z,-0.60
2018-12-27T20:30:16.541Z,-0.70
2018-12-27T20:32:47.796Z,-0.60
2018-12-27T20:35:18.953Z,-0.60
2018-12-27T20:37:49.886Z,-0.60
2018-12-27T20:40:28.635Z,-0.60
2018-12-27T20:43:01.770Z,-0.60
2018-12-27T20:45:42.827Z,-0.60
2018-12-27T20:48:16.094Z,-0.50
2018-12-27T20:50:52.039Z,-0.50
2018-12-27T20:53:24.668Z,-0.50
2018-12-27T20:55:55.895Z,-0.60
2018-12-27T20:58:26.646Z,-0.50
2018-12-27T21:00:58.584Z,-0.50
2018-12-27T21:03:29.323Z,-0.50
2018-12-27T21:06:00.037Z,-0.50
2018-12-27T21:08:30.795Z,-0.50
2018-12-27T21:11:01.430Z,-0.50
2018-12-27T21:13:32.216Z,-0.50
2018-12-27T21:16:07.236Z,-0.50
2018-12-27T21:18:38.007Z,-0.40
2018-12-27T21:23:38.789Z,-0.40
2018-12-27T21:26:09.437Z,-0.40
2018-12-27T21:28:41.339Z,-0.40
2018-12-27T21:31:12.029Z,-0.40
2018-12-27T21:33:43.073Z,-0.40
2018-12-27T21:36:13.818Z,-0.40
2018-12-27T21:38:44.570Z,-0.40
2018-12-27T21:41:15.217Z,-0.40
2018-12-27T21:43:48.032Z,-0.40
2018-12-27T21:46:18.741Z,-0.50
2018-12-27T21:48:49.392Z,-0.50
2018-12-27T21:51:20.108Z,-0.50
2018-12-27T21:53:50.761Z,-0.60
2018-12-27T21:56:21.398Z,-0.70
2018-12-27T21:58:52.077Z,-0.70
2018-12-27T22:01:23.233Z,-0.70
2018-12-27T22:03:53.965Z,-0.80
2018-12-27T22:06:24.682Z,-0.80
2018-12-27T22:08:55.401Z,-0.80
2018-12-27T22:11:26.040Z,-0.90
2018-12-27T22:13:56.842Z,-0.90
2018-12-27T22:16:27.614Z,-0.90
2018-12-27T22:18:58.274Z,-0.90
2018-12-27T22:21:28.986Z,-0.90
2018-12-27T22:23:59.712Z,-0.90
2018-12-27T22:26:30.427Z,-0.90
2018-12-27T22:29:01.164Z,-0.80
2018-12-27T22:31:31.868Z,-0.90
2018-12-27T22:34:02.525Z,-0.80
2018-12-27T22:36:33.234Z,-0.90
2018-12-27T22:39:05.445Z,-0.90
2018-12-27T22:41:36.097Z,-0.90
2018-12-27T22:44:06.834Z,-0.90
2018-12-27T22:46:37.461Z,-1.00
2018-12-27T22:49:08.117Z,-1.10
2018-12-27T22:51:38.684Z,-1.10
2018-12-27T22:54:09.414Z,-1.10
2018-12-27T22:56:40.124Z,-1.20
2018-12-27T22:59:10.833Z,-1.20
2018-12-27T23:01:41.470Z,-1.20
2018-12-27T23:04:12.058Z,-1.20
2018-12-27T23:06:42.784Z,-1.20
2018-12-27T23:09:13.537Z,-1.20
2018-12-27T23:11:44.161Z,-1.20
2018-12-27T23:14:14.885Z,-1.20
2018-12-27T23:16:45.590Z,-1.20
2018-12-27T23:19:16.320Z,-1.20
2018-12-27T23:21:47.020Z,-1.10
2018-12-27T23:24:17.682Z,-1.10
2018-12-27T23:26:48.257Z,-1.10
2018-12-27T23:29:18.929Z,-1.10
2018-12-27T23:31:49.625Z,-1.10
2018-12-27T23:34:20.357Z,-1.10
2018-12-27T23:36:50.951Z,-1.00
2018-12-27T23:39:21.626Z,-1.00
2018-12-27T23:41:52.357Z,-1.00
2018-12-27T23:44:23.065Z,-1.00
2018-12-27T23:46:53.738Z,-0.90
2018-12-27T23:49:24.373Z,-1.00
2018-12-27T23:51:55.107Z,-1.00
2018-12-27T23:54:25.744Z,-1.10
2018-12-27T23:56:56.502Z,-1.10
2018-12-27T23:59:27.205Z,-1.10
